createdAt,value
2022-09-07T00:02:30.495Z,17.52
2022-09-07T00:04:56.919Z,17.50
2022-09-07T00:07:30.400Z,17.47
2022-09-07T00:10:03.434Z,17.45
2022-09-07T00:12:36.450Z,17.46
2022-09-07T00:15:11.413Z,17.42
2022-09-07T00:17:37.903Z,17.44
2022-09-07T00:20:14.424Z,17.44
2022-09-07T00:22:40.895Z,17.39
2022-09-07T00:25:14.433Z,17.39
2022-09-07T00:27:41.300Z,17.40
2022-09-07T00:30:16.442Z,17.41
2022-09-07T00:32:50.420Z,17.37
2022-09-07T00:35:16.961Z,17.30
2022-09-07T00:37:50.430Z,17.25
2022-09-07T00:40:17.029Z,17.22
2022-09-07T00:42:50.433Z,17.20
2022-09-07T00:45:19.481Z,17.20
2022-09-07T00:48:04.408Z,17.16
2022-09-07T00:50:36.409Z,17.08
2022-09-07T00:53:13.432Z,17.02
2022-09-07T00:55:42.543Z,16.95
2022-09-07T00:58:10.232Z,16.91
2022-09-07T01:00:44.407Z,16.90
2022-09-07T01:03:11.485Z,16.93
2022-09-07T01:05:52.421Z,16.94
2022-09-07T01:08:18.987Z,16.99
2022-09-07T01:10:54.442Z,17.03
2022-09-07T01:13:20.857Z,17.06
2022-09-07T01:16:14.493Z,17.07
2022-09-07T01:19:16.479Z,17.07
2022-09-07T01:22:24.570Z,17.09
2022-09-07T01:25:07.035Z,17.12
2022-09-07T01:27:56.407Z,17.12
2022-09-07T01:30:24.495Z,17.10
2022-09-07T01:33:16.405Z,17.14
2022-09-07T01:36:01.114Z,17.17
2022-09-07T01:39:08.386Z,17.14
2022-09-07T01:41:57.451Z,17.17
2022-09-07T01:44:40.409Z,17.21
2022-09-07T01:47:17.995Z,17.21
2022-09-07T01:50:35.412Z,17.21
2022-09-07T01:53:09.549Z,17.13
2022-09-07T01:56:06.408Z,16.98
2022-09-07T01:58:46.394Z,16.87
2022-09-07T02:01:28.521Z,16.72
2022-09-07T02:04:16.391Z,16.61
2022-09-07T02:06:49.002Z,16.55
2022-09-07T02:09:40.400Z,16.52
2022-09-07T02:12:15.856Z,16.46
2022-09-07T02:14:54.405Z,16.42
2022-09-07T02:17:38.408Z,16.38
2022-09-07T02:20:11.270Z,16.38
2022-09-07T02:22:48.415Z,16.36
2022-09-07T02:25:21.924Z,16.34
2022-09-07T02:28:02.388Z,16.32
2022-09-07T02:30:42.473Z,16.31
2022-09-07T02:33:09.395Z,16.30
2022-09-07T02:35:43.405Z,16.29
2022-09-07T02:38:09.991Z,16.26
2022-09-07T02:40:36.355Z,16.24
2022-09-07T02:43:14.385Z,16.23
2022-09-07T02:46:08.469Z,16.19
2022-09-07T02:49:06.393Z,16.13
2022-09-07T02:51:51.786Z,16.12
2022-09-07T02:54:34.393Z,16.04
2022-09-07T02:57:08.406Z,15.93
2022-09-07T02:59:52.402Z,15.88
2022-09-07T03:02:20.808Z,15.94
2022-09-07T03:05:18.407Z,16.03
2022-09-07T03:07:51.554Z,16.14
2022-09-07T03:10:25.386Z,16.16
2022-09-07T03:12:52.011Z,16.23
2022-09-07T03:15:21.629Z,16.29
2022-09-07T03:17:54.420Z,16.30
2022-09-07T03:20:22.269Z,16.31
2022-09-07T03:23:00.383Z,16.32
2022-09-07T03:25:33.409Z,16.35
2022-09-07T03:28:06.629Z,16.35
2022-09-07T03:30:50.494Z,16.37
2022-09-07T03:33:17.474Z,16.37
2022-09-07T03:36:05.376Z,16.36
2022-09-07T03:38:31.989Z,16.35
2022-09-07T03:41:10.371Z,16.35
2022-09-07T03:43:36.782Z,16.36
2022-09-07T03:46:12.425Z,16.37
2022-09-07T03:48:39.403Z,16.34
2022-09-07T03:51:08.299Z,16.33
2022-09-07T03:53:44.382Z,16.33
2022-09-07T03:56:16.157Z,16.32
2022-09-07T03:58:50.386Z,16.27
2022-09-07T04:01:19.457Z,16.26
2022-09-07T04:03:47.086Z,16.26
2022-09-07T04:06:20.422Z,16.25
2022-09-07T04:08:47.062Z,16.24
2022-09-07T04:11:16.924Z,16.23
2022-09-07T04:13:50.368Z,16.25
2022-09-07T04:16:28.477Z,16.24
2022-09-07T04:18:54.876Z,16.22
2022-09-07T04:21:30.362Z,16.17
2022-09-07T04:23:56.812Z,16.09
2022-09-07T04:26:29.025Z,16.06
2022-09-07T04:29:02.362Z,16.01
2022-09-07T04:31:42.389Z,15.99
2022-09-07T04:34:15.077Z,15.99
2022-09-07T04:36:48.383Z,15.96
2022-09-07T04:39:14.831Z,15.93
2022-09-07T04:41:41.219Z,15.92
2022-09-07T04:44:16.979Z,15.92
2022-09-07T04:46:50.373Z,15.87
2022-09-07T04:52:18.428Z,15.81
2022-09-07T04:54:49.571Z,15.81
2022-09-07T04:57:16.333Z,15.84
2022-09-07T04:59:50.413Z,15.90
2022-09-07T05:02:17.466Z,15.95
2022-09-07T05:04:43.908Z,15.97
2022-09-07T05:07:16.363Z,16.00
2022-09-07T05:09:42.807Z,15.98
2022-09-07T05:12:16.377Z,16.01
2022-09-07T05:14:42.890Z,16.03
2022-09-07T05:17:09.385Z,16.06
2022-09-07T05:19:42.373Z,16.07
2022-09-07T05:22:08.812Z,16.10
2022-09-07T05:24:43.387Z,16.14
2022-09-07T05:27:16.366Z,16.20
2022-09-07T05:32:36.416Z,16.57
2022-09-07T05:35:10.386Z,16.46
2022-09-07T05:37:36.763Z,16.44
2022-09-07T05:40:10.470Z,16.45
2022-09-07T05:42:37.459Z,16.49
2022-09-07T05:45:11.369Z,16.53
2022-09-07T05:47:44.383Z,16.56
2022-09-07T05:50:11.456Z,16.58
2022-09-07T05:52:44.383Z,16.61
2022-09-07T05:55:28.870Z,16.69
2022-09-07T05:58:04.349Z,17.03
2022-09-07T06:00:38.411Z,17.45
2022-09-07T06:03:12.655Z,17.98
2022-09-07T06:05:46.368Z,17.78
2022-09-07T06:08:20.539Z,17.45
2022-09-07T06:10:47.083Z,17.21
2022-09-07T06:13:13.531Z,17.03
2022-09-07T06:15:46.384Z,17.00
2022-09-07T06:18:19.370Z,17.02
2022-09-07T06:20:45.754Z,17.10
2022-09-07T06:23:12.121Z,17.18
2022-09-07T06:25:45.340Z,17.17
2022-09-07T06:28:18.359Z,17.10
2022-09-07T06:30:44.794Z,17.02
2022-09-07T06:33:21.930Z,16.99
2022-09-07T06:36:03.273Z,17.04
2022-09-07T06:38:38.389Z,17.05
2022-09-07T06:44:20.382Z,17.29
2022-09-07T06:49:36.390Z,17.84
2022-09-07T06:52:03.824Z,19.48
2022-09-07T06:57:24.363Z,22.57
2022-09-07T06:59:50.792Z,22.51
2022-09-07T07:02:24.362Z,22.62
2022-09-07T07:04:58.361Z,22.99
2022-09-07T07:07:24.763Z,23.34
2022-09-07T07:09:51.219Z,23.76
2022-09-07T07:14:49.645Z,24.17
2022-09-07T07:17:22.354Z,24.65
2022-09-07T07:19:55.354Z,25.28
2022-09-07T07:22:45.494Z,25.52
2022-09-07T07:25:15.378Z,25.08
2022-09-07T07:27:42.314Z,24.28
2022-09-07T07:30:22.375Z,24.06
2022-09-07T07:32:48.777Z,24.94
2022-09-07T07:35:22.314Z,25.48
2022-09-07T07:37:52.369Z,26.23
2022-09-07T07:40:30.331Z,26.08
2022-09-07T07:42:57.462Z,25.81
2022-09-07T07:48:16.693Z,25.19
2022-09-07T07:50:50.314Z,24.52
2022-09-07T07:53:41.568Z,23.71
2022-09-07T07:56:10.102Z,24.02
2022-09-07T07:58:44.314Z,24.09
2022-09-07T08:01:13.340Z,23.44
2022-09-07T08:03:50.334Z,23.11
2022-09-07T08:06:18.870Z,22.93
2022-09-07T08:08:52.310Z,22.81
2022-09-07T08:11:20.550Z,22.71
2022-09-07T08:13:58.283Z,22.56
2022-09-07T08:16:31.341Z,22.46
2022-09-07T08:19:04.315Z,22.39
2022-09-07T08:21:30.804Z,22.20
2022-09-07T08:23:57.232Z,21.93
2022-09-07T08:26:30.312Z,22.01
2022-09-07T08:29:12.306Z,22.08
2022-09-07T08:31:46.345Z,22.15
2022-09-07T08:34:12.734Z,22.21
2022-09-07T08:36:46.304Z,22.18
2022-09-07T08:39:13.115Z,22.27
2022-09-07T08:42:04.315Z,22.36
2022-09-07T08:44:48.322Z,22.52
2022-09-07T08:47:42.952Z,22.58
2022-09-07T08:50:26.300Z,22.64
2022-09-07T08:53:00.040Z,22.52
2022-09-07T08:55:44.311Z,22.41
2022-09-07T08:58:32.523Z,22.38
2022-09-07T09:01:34.048Z,22.48
2022-09-07T09:04:18.229Z,22.41
2022-09-07T09:07:03.374Z,22.34
2022-09-07T09:09:51.865Z,22.25
2022-09-07T09:12:35.570Z,22.44
2022-09-07T09:15:22.333Z,22.58
2022-09-07T09:18:14.635Z,22.68
2022-09-07T09:20:48.647Z,22.61
2022-09-07T09:23:24.350Z,22.66
2022-09-07T09:26:01.551Z,22.75
2022-09-07T09:28:34.553Z,22.44
2022-09-07T09:31:01.237Z,22.48
2022-09-07T09:33:28.832Z,22.45
2022-09-07T09:36:06.331Z,22.59
2022-09-07T09:38:43.490Z,22.77
2022-09-07T09:41:18.281Z,22.95
2022-09-07T09:44:02.311Z,23.10
2022-09-07T09:46:32.478Z,23.16
2022-09-07T09:49:20.314Z,23.27
2022-09-07T09:55:03.292Z,23.14
2022-09-07T10:01:27.703Z,23.43
2022-09-07T10:06:28.297Z,23.46
2022-09-07T10:08:57.776Z,23.67
2022-09-07T10:12:08.221Z,23.77
2022-09-07T10:14:46.689Z,23.85
2022-09-07T10:17:50.297Z,23.88
2022-09-07T10:20:16.636Z,24.04
2022-09-07T10:22:58.303Z,23.96
2022-09-07T11:00:07.894Z,24.46
2022-09-07T11:06:02.484Z,24.77
2022-09-07T11:14:29.310Z,25.24
2022-09-07T11:16:59.673Z,25.44
2022-09-07T11:19:36.363Z,25.68
2022-09-07T11:22:19.498Z,25.70
2022-09-07T11:25:31.608Z,25.65
2022-09-07T11:28:08.910Z,25.68
2022-09-07T11:30:42.899Z,25.71
2022-09-07T11:33:23.114Z,25.73
2022-09-07T11:36:01.123Z,25.70
2022-09-07T11:38:46.778Z,25.46
2022-09-07T11:41:22.173Z,25.34
2022-09-07T11:44:00.721Z,25.26
2022-09-07T11:46:40.690Z,25.16
2022-09-07T11:49:15.559Z,25.11
2022-09-07T11:51:53.698Z,25.34
2022-09-07T11:54:32.466Z,25.52
2022-09-07T11:57:28.798Z,25.26
2022-09-07T12:00:00.806Z,25.40
2022-09-07T12:03:00.912Z,25.57
2022-09-07T12:05:33.717Z,25.70
2022-09-07T12:08:32.484Z,25.76
2022-09-07T12:11:22.614Z,25.75
2022-09-07T12:13:58.755Z,25.44
2022-09-07T12:16:45.979Z,25.63
2022-09-07T12:19:20.587Z,25.88
2022-09-07T12:21:54.402Z,26.27
2022-09-07T12:24:32.744Z,26.48
2022-09-07T12:27:00.722Z,26.59
2022-09-07T12:29:29.566Z,26.81
2022-09-07T12:32:00.095Z,26.83
2022-09-07T12:34:35.063Z,26.92
2022-09-07T12:37:08.911Z,27.02
2022-09-07T12:39:43.503Z,27.11
2022-09-07T12:42:34.113Z,27.21
2022-09-07T12:45:28.272Z,27.41
2022-09-07T12:48:04.348Z,27.22
2022-09-07T12:50:39.264Z,26.64
2022-09-07T12:53:40.791Z,26.50
2022-09-07T12:56:32.035Z,26.85
2022-09-07T12:59:18.930Z,27.12
2022-09-07T13:01:59.275Z,27.07
2022-09-07T13:04:43.995Z,27.14
2022-09-07T13:07:22.630Z,26.87
2022-09-07T13:10:00.511Z,26.89
2022-09-07T13:12:54.695Z,26.68
2022-09-07T13:15:49.569Z,26.83
2022-09-07T13:18:28.537Z,26.85
2022-09-07T13:21:10.939Z,26.96
2022-09-07T13:23:49.590Z,27.18
2022-09-07T13:26:53.633Z,27.10
2022-09-07T13:29:36.710Z,26.91
2022-09-07T13:35:20.291Z,26.62
2022-09-07T13:38:02.037Z,26.84
2022-09-07T13:40:39.069Z,27.00
2022-09-07T13:43:12.164Z,26.80
2022-09-07T13:45:53.864Z,26.48
2022-09-07T13:48:36.884Z,26.25
2022-09-07T13:51:34.481Z,26.59
2022-09-07T13:54:03.889Z,26.91
2022-09-07T13:56:45.045Z,26.71
2022-09-07T13:59:19.753Z,26.49
2022-09-07T14:01:48.011Z,26.69
2022-09-07T14:04:41.327Z,26.91
2022-09-07T14:07:25.428Z,26.93
2022-09-07T14:10:06.949Z,26.68
2022-09-07T14:12:43.182Z,26.38
2022-09-07T14:15:34.316Z,26.57
2022-09-07T14:18:13.122Z,26.96
2022-09-07T14:20:49.483Z,27.11
2022-09-07T14:23:23.955Z,27.12
2022-09-07T14:26:19.944Z,26.86
2022-09-07T14:28:48.916Z,26.79
2022-09-07T14:31:18.013Z,26.67
2022-09-07T14:33:55.377Z,26.38
2022-09-07T14:36:43.975Z,26.12
2022-09-07T14:39:13.440Z,25.83
2022-09-07T14:41:42.977Z,25.77
2022-09-07T14:44:37.636Z,25.94
2022-09-07T14:47:30.432Z,26.19
2022-09-07T14:50:05.322Z,26.31
2022-09-07T14:52:42.307Z,26.45
2022-09-07T14:55:27.915Z,26.68
2022-09-07T14:58:13.503Z,26.96
2022-09-07T15:00:42.286Z,27.21
2022-09-07T15:03:32.172Z,27.28
2022-09-07T15:06:01.468Z,27.12
2022-09-07T15:08:48.722Z,26.98
2022-09-07T15:11:39.504Z,26.96
2022-09-07T15:14:20.323Z,26.94
2022-09-07T15:19:45.446Z,27.11
2022-09-07T15:22:13.347Z,27.15
2022-09-07T15:24:39.885Z,27.25
2022-09-07T15:27:26.914Z,27.25
2022-09-07T15:29:53.364Z,27.31
2022-09-07T15:32:20.002Z,27.25
2022-09-07T15:34:46.561Z,27.35
2022-09-07T15:39:59.442Z,27.33
2022-09-07T15:45:13.412Z,27.16
2022-09-07T15:47:47.161Z,27.06
2022-09-07T15:50:17.183Z,26.78
2022-09-07T15:52:46.439Z,26.59
2022-09-07T15:55:13.562Z,26.66
2022-09-07T15:58:10.600Z,26.82
2022-09-07T16:00:27.113Z,26.87
2022-09-07T16:03:09.417Z,26.87
2022-09-07T16:05:40.653Z,26.92
2022-09-07T16:10:55.307Z,26.59
2022-09-07T16:13:24.122Z,26.38
2022-09-07T16:15:50.972Z,26.22
2022-09-07T16:18:18.386Z,26.09
2022-09-07T16:20:45.870Z,25.91
2022-09-07T16:23:15.227Z,25.68
2022-09-07T16:25:43.134Z,25.56
2022-09-07T16:28:10.240Z,25.53
2022-09-07T16:30:40.431Z,25.58
2022-09-07T16:33:07.375Z,25.61
2022-09-07T16:35:33.901Z,25.67
2022-09-07T16:40:46.731Z,25.53
2022-09-07T16:43:13.130Z,25.48
2022-09-07T16:48:25.939Z,25.14
2022-09-07T16:50:58.944Z,25.06
2022-09-07T16:53:29.199Z,24.92
2022-09-07T16:56:02.460Z,24.86
2022-09-07T16:58:38.296Z,24.79
2022-09-07T17:01:11.604Z,24.70
2022-09-07T17:03:38.895Z,24.57
2022-09-07T17:06:08.007Z,24.48
2022-09-07T17:08:35.912Z,24.40
2022-09-07T17:11:08.404Z,24.32
2022-09-07T17:13:37.011Z,24.24
2022-09-07T17:16:07.900Z,24.17
2022-09-07T17:21:22.090Z,23.99
2022-09-07T17:23:54.814Z,23.89
2022-09-07T17:26:23.318Z,23.78
2022-09-07T17:28:54.152Z,23.65
2022-09-07T17:34:13.233Z,23.46
2022-09-07T17:36:40.367Z,23.41
2022-09-07T17:39:16.401Z,23.35
2022-09-07T17:41:44.150Z,23.24
2022-09-07T17:44:10.900Z,23.16
2022-09-07T17:46:37.371Z,23.06
2022-09-07T17:49:05.145Z,22.77
2022-09-07T17:51:32.557Z,22.56
2022-09-07T17:54:02.514Z,22.52
2022-09-07T17:56:29.900Z,22.44
2022-09-07T18:00:10.735Z,22.36
2022-09-07T18:01:43.347Z,22.26
2022-09-07T18:04:10.996Z,22.16
2022-09-07T18:06:37.639Z,22.06
2022-09-07T18:09:05.311Z,21.92
2022-09-07T18:11:49.043Z,21.78
2022-09-07T18:14:16.798Z,21.67
2022-09-07T18:16:45.097Z,21.59
2022-09-07T18:19:12.332Z,21.52
2022-09-07T18:21:41.234Z,21.45
2022-09-07T18:24:23.440Z,21.35
2022-09-07T18:26:52.542Z,21.26
2022-09-07T18:29:29.866Z,21.13
2022-09-07T18:31:58.876Z,21.05
2022-09-07T18:34:25.611Z,20.95
2022-09-07T18:36:52.117Z,20.79
2022-09-07T18:39:18.686Z,20.69
2022-09-07T18:41:45.032Z,20.67
2022-09-07T18:46:57.874Z,20.42
2022-09-07T18:49:25.052Z,20.41
2022-09-07T18:54:38.932Z,20.37
2022-09-07T18:57:06.700Z,20.36
2022-09-07T18:59:33.281Z,20.30
2022-09-07T19:02:03.957Z,20.24
2022-09-07T19:07:20.277Z,20.07
2022-09-07T19:09:48.261Z,20.05
2022-09-07T19:12:15.068Z,20.01
2022-09-07T19:14:42.154Z,19.93
2022-09-07T19:17:10.743Z,19.72
2022-09-07T19:19:38.002Z,19.51
2022-09-07T19:22:04.408Z,19.33
2022-09-07T19:24:31.770Z,19.20
2022-09-07T19:27:00.430Z,19.16
2022-09-07T19:29:27.631Z,19.17
2022-09-07T19:32:11.881Z,19.17
2022-09-07T19:34:41.006Z,19.13
2022-09-07T19:37:09.305Z,19.07
2022-09-07T19:39:35.697Z,19.03
2022-09-07T19:42:04.179Z,18.98
2022-09-07T19:44:30.972Z,18.95
2022-09-07T19:47:00.021Z,18.92
2022-09-07T19:49:27.015Z,18.88
2022-09-07T19:51:54.644Z,18.80
2022-09-07T19:54:21.051Z,18.76
2022-09-07T19:56:47.422Z,18.73
2022-09-07T19:59:14.387Z,18.57
2022-09-07T20:01:45.704Z,18.10
2022-09-07T20:04:18.939Z,17.93
2022-09-07T20:06:47.996Z,17.81
2022-09-07T20:09:14.321Z,17.51
2022-09-07T20:11:46.024Z,17.50
2022-09-07T20:14:12.654Z,17.48
2022-09-07T20:16:40.024Z,17.54
2022-09-07T20:19:07.448Z,17.59
2022-09-07T20:21:34.271Z,17.65
2022-09-07T20:24:00.667Z,17.69
2022-09-07T20:26:27.271Z,17.69
2022-09-07T20:29:05.890Z,17.69
2022-09-07T20:31:41.635Z,17.68
2022-09-07T20:34:09.415Z,17.64
2022-09-07T20:36:36.166Z,17.62
2022-09-07T20:39:02.532Z,17.60
2022-09-07T20:41:31.424Z,17.54
2022-09-07T20:44:00.217Z,17.50
2022-09-07T20:46:28.369Z,17.46
2022-09-07T20:48:54.834Z,17.36
2022-09-07T20:51:22.235Z,17.32
2022-09-07T20:53:49.621Z,17.31
2022-09-07T20:56:24.423Z,17.29
2022-09-07T20:58:55.952Z,17.26
2022-09-07T21:01:23.419Z,17.20
2022-09-07T21:03:52.743Z,17.16
2022-09-07T21:06:20.533Z,17.13
2022-09-07T21:08:50.783Z,17.07
2022-09-07T21:11:22.922Z,17.04
2022-09-07T21:14:00.885Z,17.04
2022-09-07T21:16:28.014Z,16.99
2022-09-07T21:18:58.691Z,16.98
2022-09-07T21:21:27.194Z,16.99
2022-09-07T21:24:03.695Z,16.98
2022-09-07T21:26:32.093Z,16.93
2022-09-07T21:29:04.919Z,16.92
2022-09-07T21:31:33.632Z,16.91
2022-09-07T21:34:01.910Z,16.92
2022-09-07T21:36:29.381Z,16.93
2022-09-07T21:38:56.180Z,16.92
2022-09-07T21:41:24.545Z,16.88
2022-09-07T21:43:58.574Z,16.80
2022-09-07T21:46:26.081Z,16.76
2022-09-07T21:48:52.732Z,16.75
2022-09-07T21:51:19.109Z,16.75
2022-09-07T21:53:45.654Z,16.65
2022-09-07T21:56:14.092Z,16.59
2022-09-07T21:58:40.837Z,16.45
2022-09-07T22:01:12.311Z,16.42
2022-09-07T22:03:40.391Z,16.49
2022-09-07T22:06:08.122Z,16.51
2022-09-07T22:08:39.463Z,16.55
2022-09-07T22:11:11.565Z,16.49
2022-09-07T22:13:38.268Z,16.49
2022-09-07T22:16:06.241Z,16.47
2022-09-07T22:18:33.052Z,16.42
2022-09-07T22:21:10.732Z,16.39
2022-09-07T22:23:39.509Z,16.38
2022-09-07T22:26:07.850Z,16.31
2022-09-07T22:28:35.438Z,16.25
2022-09-07T22:31:17.253Z,16.26
2022-09-07T22:33:45.456Z,16.33
2022-09-07T22:36:15.347Z,16.44
2022-09-07T22:38:43.497Z,16.50
2022-09-07T22:41:12.475Z,16.56
2022-09-07T22:43:39.343Z,16.60
2022-09-07T22:46:07.053Z,16.62
2022-09-07T22:48:33.921Z,16.63
2022-09-07T22:51:01.250Z,16.66
2022-09-07T22:53:29.964Z,16.69
2022-09-07T22:55:56.999Z,16.71
2022-09-07T22:58:23.840Z,16.74
2022-09-07T23:00:51.294Z,16.76
2022-09-07T23:03:18.543Z,16.78
2022-09-07T23:05:44.941Z,16.81
2022-09-07T23:08:11.866Z,16.83
2022-09-07T23:10:39.241Z,16.86
2022-09-07T23:13:05.906Z,16.87
2022-09-07T23:15:35.879Z,16.90
2022-09-07T23:18:02.252Z,16.93
2022-09-07T23:20:28.649Z,16.92
2022-09-07T23:22:55.112Z,16.93
2022-09-07T23:25:21.489Z,16.92
2022-09-07T23:27:47.936Z,16.88
2022-09-07T23:30:14.609Z,16.75
2022-09-07T23:32:41.220Z,16.65
2022-09-07T23:35:08.237Z,16.59
2022-09-07T23:37:34.645Z,16.56
2022-09-07T23:40:01.185Z,16.55
2022-09-07T23:42:27.790Z,16.52
2022-09-07T23:44:54.184Z,16.48
2022-09-07T23:47:20.542Z,16.49
2022-09-07T23:49:47.057Z,16.52
2022-09-07T23:52:13.459Z,16.61
2022-09-07T23:54:39.932Z,16.69
2022-09-07T23:57:06.292Z,16.73
2022-09-07T23:59:33.840Z,16.79
